sensor_id;sensor_type;location;lat;lon;timestamp;temperature;humidity
21844;DHT22;11084;52.482;9.108;2022-11-03T00:01:42;8.90;99.90
21844;DHT22;11084;52.482;9.108;2022-11-03T00:04:11;8.90;99.90
21844;DHT22;11084;52.482;9.108;2022-11-03T00:06:43;8.90;99.90
21844;DHT22;11084;52.482;9.108;2022-11-03T00:09:12;9.00;99.90
21844;DHT22;11084;52.482;9.108;2022-11-03T00:11:40;9.00;99.90
21844;DHT22;11084;52.482;9.108;2022-11-03T00:14:07;9.00;99.90
21844;DHT22;11084;52.482;9.108;2022-11-03T00:16:34;9.00;99.90
21844;DHT22;11084;52.482;9.108;2022-11-03T00:19:00;9.10;99.90
21844;DHT22;11084;52.482;9.108;2022-11-03T00:21:27;9.10;99.90
21844;DHT22;11084;52.482;9.108;2022-11-03T00:23:53;9.10;99.90
21844;DHT22;11084;52.482;9.108;2022-11-03T00:26:27;9.10;99.90
21844;DHT22;11084;52.482;9.108;2022-11-03T00:28:56;9.10;99.90
21844;DHT22;11084;52.482;9.108;2022-11-03T00:31:31;9.10;99.90
21844;DHT22;11084;52.482;9.108;2022-11-03T00:33:59;9.20;99.90
21844;DHT22;11084;52.482;9.108;2022-11-03T00:36:28;9.20;99.90
21844;DHT22;11084;52.482;9.108;2022-11-03T00:38:55;9.20;99.90
21844;DHT22;11084;52.482;9.108;2022-11-03T00:41:23;9.20;99.90
21844;DHT22;11084;52.482;9.108;2022-11-03T00:43:50;9.20;99.90
21844;DHT22;11084;52.482;9.108;2022-11-03T00:46:17;9.20;99.90
21844;DHT22;11084;52.482;9.108;2022-11-03T00:48:44;9.20;99.90
21844;DHT22;11084;52.482;9.108;2022-11-03T00:51:16;9.20;99.90
21844;DHT22;11084;52.482;9.108;2022-11-03T00:53:47;9.20;99.90
21844;DHT22;11084;52.482;9.108;2022-11-03T00:56:25;9.20;99.90
21844;DHT22;11084;52.482;9.108;2022-11-03T00:58:53;9.20;99.90
21844;DHT22;11084;52.482;9.108;2022-11-03T01:01:24;9.30;99.90
21844;DHT22;11084;52.482;9.108;2022-11-03T01:03:58;9.30;99.90
21844;DHT22;11084;52.482;9.108;2022-11-03T01:06:45;9.30;99.90
21844;DHT22;11084;52.482;9.108;2022-11-03T01:09:16;9.30;99.90
21844;DHT22;11084;52.482;9.108;2022-11-03T01:12:02;9.40;99.90
21844;DHT22;11084;52.482;9.108;2022-11-03T01:14:36;9.40;99.90
21844;DHT22;11084;52.482;9.108;2022-11-03T01:17:16;9.40;99.90
21844;DHT22;11084;52.482;9.108;2022-11-03T01:19:44;9.40;99.90
21844;DHT22;11084;52.482;9.108;2022-11-03T01:22:11;9.40;99.90
21844;DHT22;11084;52.482;9.108;2022-11-03T01:24:39;9.40;99.90
21844;DHT22;11084;52.482;9.108;2022-11-03T01:27:07;9.40;99.90
21844;DHT22;11084;52.482;9.108;2022-11-03T01:29:37;9.40;99.90
21844;DHT22;11084;52.482;9.108;2022-11-03T01:32:06;9.40;99.90
21844;DHT22;11084;52.482;9.108;2022-11-03T01:34:33;9.40;99.90
21844;DHT22;11084;52.482;9.108;2022-11-03T01:37:00;9.30;99.90
21844;DHT22;11084;52.482;9.108;2022-11-03T01:39:26;9.30;99.90
21844;DHT22;11084;52.482;9.108;2022-11-03T01:41:52;9.30;99.90
21844;DHT22;11084;52.482;9.108;2022-11-03T01:47:02;9.30;99.90
21844;DHT22;11084;52.482;9.108;2022-11-03T01:49:52;9.30;99.90
21844;DHT22;11084;52.482;9.108;2022-11-03T01:52:25;9.20;99.90
21844;DHT22;11084;52.482;9.108;2022-11-03T01:55:01;9.20;99.90
21844;DHT22;11084;52.482;9.108;2022-11-03T01:57:57;9.20;99.90
21844;DHT22;11084;52.482;9.108;2022-11-03T02:00:26;9.20;99.90
21844;DHT22;11084;52.482;9.108;2022-11-03T02:02:52;9.20;99.90
21844;DHT22;11084;52.482;9.108;2022-11-03T02:05:20;9.20;99.90
21844;DHT22;11084;52.482;9.108;2022-11-03T02:08:29;9.30;99.90
21844;DHT22;11084;52.482;9.108;2022-11-03T02:10:58;9.30;99.90
21844;DHT22;11084;52.482;9.108;2022-11-03T02:13:25;9.40;99.90
21844;DHT22;11084;52.482;9.108;2022-11-03T02:15:55;9.40;99.90
21844;DHT22;11084;52.482;9.108;2022-11-03T02:18:27;9.40;99.90
21844;DHT22;11084;52.482;9.108;2022-11-03T02:21:22;9.40;99.90
21844;DHT22;11084;52.482;9.108;2022-11-03T02:26:59;9.50;99.90
21844;DHT22;11084;52.482;9.108;2022-11-03T02:29:25;9.50;99.90
21844;DHT22;11084;52.482;9.108;2022-11-03T02:34:43;9.50;99.90
21844;DHT22;11084;52.482;9.108;2022-11-03T02:37:19;9.50;99.90
21844;DHT22;11084;52.482;9.108;2022-11-03T02:39:53;9.50;99.90
21844;DHT22;11084;52.482;9.108;2022-11-03T02:42:23;9.60;99.90
21844;DHT22;11084;52.482;9.108;2022-11-03T02:44:51;9.50;99.90
21844;DHT22;11084;52.482;9.108;2022-11-03T02:47:19;9.60;99.90
21844;DHT22;11084;52.482;9.108;2022-11-03T02:49:49;9.60;99.90
21844;DHT22;11084;52.482;9.108;2022-11-03T02:52:45;9.60;99.90
21844;DHT22;11084;52.482;9.108;2022-11-03T03:01:04;9.60;99.90
21844;DHT22;11084;52.482;9.108;2022-11-03T03:03:37;9.60;99.90
21844;DHT22;11084;52.482;9.108;2022-11-03T03:06:20;9.60;99.90
21844;DHT22;11084;52.482;9.108;2022-11-03T03:08:59;9.60;99.90
21844;DHT22;11084;52.482;9.108;2022-11-03T03:11:28;9.60;99.90
21844;DHT22;11084;52.482;9.108;2022-11-03T03:14:36;9.60;99.90
21844;DHT22;11084;52.482;9.108;2022-11-03T03:20:03;9.60;99.90
21844;DHT22;11084;52.482;9.108;2022-11-03T03:23:02;9.60;99.90
21844;DHT22;11084;52.482;9.108;2022-11-03T03:26:11;9.60;99.90
21844;DHT22;11084;52.482;9.108;2022-11-03T03:29:08;9.60;99.90
21844;DHT22;11084;52.482;9.108;2022-11-03T03:31:41;9.60;99.90
21844;DHT22;11084;52.482;9.108;2022-11-03T03:34:14;9.60;99.90
21844;DHT22;11084;52.482;9.108;2022-11-03T03:36:43;9.60;99.90
21844;DHT22;11084;52.482;9.108;2022-11-03T03:39:10;9.60;99.90
21844;DHT22;11084;52.482;9.108;2022-11-03T03:41:38;9.60;99.90
21844;DHT22;11084;52.482;9.108;2022-11-03T03:44:07;9.60;99.90
21844;DHT22;11084;52.482;9.108;2022-11-03T03:46:57;9.60;99.90
21844;DHT22;11084;52.482;9.108;2022-11-03T03:49:25;9.60;99.90
21844;DHT22;11084;52.482;9.108;2022-11-03T03:51:52;9.60;99.90
21844;DHT22;11084;52.482;9.108;2022-11-03T03:54:17;9.60;99.90
21844;DHT22;11084;52.482;9.108;2022-11-03T03:59:27;9.60;99.90
21844;DHT22;11084;52.482;9.108;2022-11-03T04:01:53;9.60;99.90
21844;DHT22;11084;52.482;9.108;2022-11-03T04:04:19;9.60;99.90
21844;DHT22;11084;52.482;9.108;2022-11-03T04:06:45;9.60;99.90
21844;DHT22;11084;52.482;9.108;2022-11-03T04:09:11;9.60;99.90
21844;DHT22;11084;52.482;9.108;2022-11-03T04:11:37;9.60;99.90
21844;DHT22;11084;52.482;9.108;2022-11-03T04:14:21;9.60;99.90
21844;DHT22;11084;52.482;9.108;2022-11-03T04:17:18;9.60;99.90
21844;DHT22;11084;52.482;9.108;2022-11-03T04:20:05;9.60;99.90
21844;DHT22;11084;52.482;9.108;2022-11-03T04:22:54;9.60;99.90
21844;DHT22;11084;52.482;9.108;2022-11-03T04:25:20;9.60;99.90
21844;DHT22;11084;52.482;9.108;2022-11-03T04:27:46;9.60;99.90
21844;DHT22;11084;52.482;9.108;2022-11-03T04:30:13;9.60;99.90
21844;DHT22;11084;52.482;9.108;2022-11-03T04:32:42;9.60;99.90
21844;DHT22;11084;52.482;9.108;2022-11-03T04:38:00;9.70;99.90
21844;DHT22;11084;52.482;9.108;2022-11-03T04:40:28;9.70;99.90
21844;DHT22;11084;52.482;9.108;2022-11-03T04:42:55;9.70;99.90
21844;DHT22;11084;52.482;9.108;2022-11-03T04:45:31;9.70;99.90
21844;DHT22;11084;52.482;9.108;2022-11-03T04:48:22;9.70;99.90
21844;DHT22;11084;52.482;9.108;2022-11-03T04:50:53;9.70;99.90
21844;DHT22;11084;52.482;9.108;2022-11-03T04:53:21;9.70;99.90
21844;DHT22;11084;52.482;9.108;2022-11-03T04:55:50;9.80;99.90
21844;DHT22;11084;52.482;9.108;2022-11-03T04:58:26;9.80;99.90
21844;DHT22;11084;52.482;9.108;2022-11-03T05:00:59;9.80;99.90
21844;DHT22;11084;52.482;9.108;2022-11-03T05:03:32;9.80;99.90
21844;DHT22;11084;52.482;9.108;2022-11-03T05:06:13;9.80;99.90
21844;DHT22;11084;52.482;9.108;2022-11-03T05:08:45;9.80;99.90
21844;DHT22;11084;52.482;9.108;2022-11-03T05:11:31;9.80;99.90
21844;DHT22;11084;52.482;9.108;2022-11-03T05:14:02;9.90;99.90
21844;DHT22;11084;52.482;9.108;2022-11-03T05:16:32;9.90;99.90
21844;DHT22;11084;52.482;9.108;2022-11-03T05:18:59;9.90;99.90
21844;DHT22;11084;52.482;9.108;2022-11-03T05:21:26;9.90;99.90
21844;DHT22;11084;52.482;9.108;2022-11-03T05:23:56;9.90;99.90
21844;DHT22;11084;52.482;9.108;2022-11-03T05:26:34;9.90;99.90
21844;DHT22;11084;52.482;9.108;2022-11-03T05:29:03;9.80;99.90
21844;DHT22;11084;52.482;9.108;2022-11-03T05:31:36;9.90;99.90
21844;DHT22;11084;52.482;9.108;2022-11-03T05:36:50;9.90;99.90
21844;DHT22;11084;52.482;9.108;2022-11-03T05:39:42;9.80;99.90
21844;DHT22;11084;52.482;9.108;2022-11-03T05:42:36;9.80;99.90
21844;DHT22;11084;52.482;9.108;2022-11-03T05:45:21;9.80;99.90
21844;DHT22;11084;52.482;9.108;2022-11-03T05:47:52;9.80;99.90
21844;DHT22;11084;52.482;9.108;2022-11-03T05:50:21;9.80;99.90
21844;DHT22;11084;52.482;9.108;2022-11-03T05:53:05;9.80;99.90
21844;DHT22;11084;52.482;9.108;2022-11-03T05:55:41;9.80;99.90
21844;DHT22;11084;52.482;9.108;2022-11-03T05:58:59;9.80;99.90
21844;DHT22;11084;52.482;9.108;2022-11-03T06:01:11;9.80;99.90
21844;DHT22;11084;52.482;9.108;2022-11-03T06:03:41;9.80;99.90
21844;DHT22;11084;52.482;9.108;2022-11-03T06:06:15;9.80;99.90
21844;DHT22;11084;52.482;9.108;2022-11-03T06:08:48;9.80;99.90
21844;DHT22;11084;52.482;9.108;2022-11-03T06:11:30;9.80;99.90
21844;DHT22;11084;52.482;9.108;2022-11-03T06:13:58;9.80;99.90
21844;DHT22;11084;52.482;9.108;2022-11-03T06:16:43;9.80;99.90
21844;DHT22;11084;52.482;9.108;2022-11-03T06:19:25;9.80;99.90
21844;DHT22;11084;52.482;9.108;2022-11-03T06:21:55;9.80;99.90
21844;DHT22;11084;52.482;9.108;2022-11-03T06:24:25;9.80;99.90
21844;DHT22;11084;52.482;9.108;2022-11-03T06:26:55;9.80;99.90
21844;DHT22;11084;52.482;9.108;2022-11-03T06:29:27;9.80;99.90
21844;DHT22;11084;52.482;9.108;2022-11-03T06:31:56;9.80;99.90
21844;DHT22;11084;52.482;9.108;2022-11-03T06:37:30;9.90;99.90
21844;DHT22;11084;52.482;9.108;2022-11-03T06:40:02;9.90;99.90
21844;DHT22;11084;52.482;9.108;2022-11-03T06:42:37;9.90;99.90
21844;DHT22;11084;52.482;9.108;2022-11-03T06:45:19;10.00;99.90
21844;DHT22;11084;52.482;9.108;2022-11-03T06:47:46;10.00;99.90
21844;DHT22;11084;52.482;9.108;2022-11-03T06:50:23;10.10;99.90
21844;DHT22;11084;52.482;9.108;2022-11-03T06:52:53;10.00;99.90
21844;DHT22;11084;52.482;9.108;2022-11-03T06:55:30;10.00;99.90
21844;DHT22;11084;52.482;9.108;2022-11-03T06:58:06;10.10;99.90
21844;DHT22;11084;52.482;9.108;2022-11-03T07:00:40;10.10;99.90
21844;DHT22;11084;52.482;9.108;2022-11-03T07:09:19;10.10;99.90
21844;DHT22;11084;52.482;9.108;2022-11-03T07:11:58;10.20;99.90
21844;DHT22;11084;52.482;9.108;2022-11-03T07:14:31;10.20;99.90
21844;DHT22;11084;52.482;9.108;2022-11-03T07:17:14;10.30;99.90
21844;DHT22;11084;52.482;9.108;2022-11-03T07:19:42;10.30;99.90
21844;DHT22;11084;52.482;9.108;2022-11-03T07:22:21;10.30;99.90
21844;DHT22;11084;52.482;9.108;2022-11-03T07:24:55;10.40;99.90
21844;DHT22;11084;52.482;9.108;2022-11-03T07:30:01;10.40;99.90
21844;DHT22;11084;52.482;9.108;2022-11-03T07:32:37;10.50;99.90
21844;DHT22;11084;52.482;9.108;2022-11-03T07:35:33;10.50;99.90
21844;DHT22;11084;52.482;9.108;2022-11-03T07:38:08;10.60;99.90
21844;DHT22;11084;52.482;9.108;2022-11-03T07:40:44;10.60;99.90
21844;DHT22;11084;52.482;9.108;2022-11-03T07:43:30;10.70;99.90
21844;DHT22;11084;52.482;9.108;2022-11-03T07:46:00;10.70;99.90
21844;DHT22;11084;52.482;9.108;2022-11-03T07:51:19;10.80;99.90
21844;DHT22;11084;52.482;9.108;2022-11-03T07:54:23;10.90;99.90
21844;DHT22;11084;52.482;9.108;2022-11-03T07:57:04;10.90;99.90
21844;DHT22;11084;52.482;9.108;2022-11-03T07:59:41;10.90;99.90
21844;DHT22;11084;52.482;9.108;2022-11-03T08:04:49;11.10;99.90
21844;DHT22;11084;52.482;9.108;2022-11-03T08:07:15;11.20;99.90
21844;DHT22;11084;52.482;9.108;2022-11-03T08:09:41;11.30;99.90
21844;DHT22;11084;52.482;9.108;2022-11-03T08:12:07;11.30;99.90
21844;DHT22;11084;52.482;9.108;2022-11-03T08:14:33;11.40;99.90
21844;DHT22;11084;52.482;9.108;2022-11-03T08:17:00;11.40;99.90
21844;DHT22;11084;52.482;9.108;2022-11-03T08:19:26;11.60;99.90
21844;DHT22;11084;52.482;9.108;2022-11-03T08:21:52;11.60;99.90
21844;DHT22;11084;52.482;9.108;2022-11-03T08:24:18;11.60;99.90
21844;DHT22;11084;52.482;9.108;2022-11-03T08:26:44;11.70;99.90
21844;DHT22;11084;52.482;9.108;2022-11-03T08:29:10;11.70;99.90
21844;DHT22;11084;52.482;9.108;2022-11-03T08:31:36;11.80;99.90
21844;DHT22;11084;52.482;9.108;2022-11-03T08:34:02;11.80;99.90
21844;DHT22;11084;52.482;9.108;2022-11-03T08:36:28;11.80;99.90
21844;DHT22;11084;52.482;9.108;2022-11-03T08:38:55;11.90;99.90
21844;DHT22;11084;52.482;9.108;2022-11-03T08:41:21;11.90;99.90
21844;DHT22;11084;52.482;9.108;2022-11-03T08:43:49;11.90;99.90
21844;DHT22;11084;52.482;9.108;2022-11-03T08:46:15;12.00;99.90
21844;DHT22;11084;52.482;9.108;2022-11-03T08:48:41;12.00;99.90
21844;DHT22;11084;52.482;9.108;2022-11-03T08:51:07;12.00;99.90
21844;DHT22;11084;52.482;9.108;2022-11-03T08:53:34;12.00;99.90
21844;DHT22;11084;52.482;9.108;2022-11-03T08:56:00;12.10;99.90
21844;DHT22;11084;52.482;9.108;2022-11-03T08:58:26;12.10;99.90
21844;DHT22;11084;52.482;9.108;2022-11-03T09:00:52;12.20;99.90
21844;DHT22;11084;52.482;9.108;2022-11-03T09:03:18;12.20;99.90
21844;DHT22;11084;52.482;9.108;2022-11-03T09:05:44;12.30;99.90
21844;DHT22;11084;52.482;9.108;2022-11-03T09:08:11;12.30;99.90
21844;DHT22;11084;52.482;9.108;2022-11-03T09:10:37;12.40;99.90
21844;DHT22;11084;52.482;9.108;2022-11-03T09:13:04;12.50;99.90
21844;DHT22;11084;52.482;9.108;2022-11-03T09:15:30;12.50;99.90
21844;DHT22;11084;52.482;9.108;2022-11-03T09:17:56;12.60;99.90
21844;DHT22;11084;52.482;9.108;2022-11-03T09:20:22;12.70;99.90
21844;DHT22;11084;52.482;9.108;2022-11-03T09:22:48;12.80;99.90
21844;DHT22;11084;52.482;9.108;2022-11-03T09:25:14;12.80;99.90
21844;DHT22;11084;52.482;9.108;2022-11-03T09:27:41;12.90;99.90
21844;DHT22;11084;52.482;9.108;2022-11-03T09:30:07;13.00;99.90
21844;DHT22;11084;52.482;9.108;2022-11-03T09:32:34;13.10;99.90
21844;DHT22;11084;52.482;9.108;2022-11-03T09:35:00;13.20;99.90
21844;DHT22;11084;52.482;9.108;2022-11-03T09:37:26;13.30;99.90
21844;DHT22;11084;52.482;9.108;2022-11-03T09:39:53;13.40;99.90
21844;DHT22;11084;52.482;9.108;2022-11-03T09:42:19;13.50;99.90
21844;DHT22;11084;52.482;9.108;2022-11-03T09:44:45;13.50;99.90
21844;DHT22;11084;52.482;9.108;2022-11-03T09:47:28;13.60;99.90
21844;DHT22;11084;52.482;9.108;2022-11-03T09:49:58;13.70;99.90
21844;DHT22;11084;52.482;9.108;2022-11-03T09:52:24;13.80;99.90
21844;DHT22;11084;52.482;9.108;2022-11-03T09:54:52;13.80;99.90
21844;DHT22;11084;52.482;9.108;2022-11-03T09:57:22;13.80;99.90
21844;DHT22;11084;52.482;9.108;2022-11-03T09:59:50;13.80;99.90
21844;DHT22;11084;52.482;9.108;2022-11-03T10:02:26;13.80;99.90
21844;DHT22;11084;52.482;9.108;2022-11-03T10:04:55;13.90;99.90
21844;DHT22;11084;52.482;9.108;2022-11-03T10:07:25;13.90;99.90
21844;DHT22;11084;52.482;9.108;2022-11-03T10:09:52;13.80;99.90
21844;DHT22;11084;52.482;9.108;2022-11-03T10:12:21;13.90;99.90
21844;DHT22;11084;52.482;9.108;2022-11-03T10:14:49;14.00;99.90
21844;DHT22;11084;52.482;9.108;2022-11-03T10:17:21;14.00;99.90
21844;DHT22;11084;52.482;9.108;2022-11-03T10:19:51;14.00;99.90
21844;DHT22;11084;52.482;9.108;2022-11-03T10:22:21;14.10;99.90
21844;DHT22;11084;52.482;9.108;2022-11-03T10:24:47;14.10;99.90
21844;DHT22;11084;52.482;9.108;2022-11-03T10:27:24;14.10;99.90
21844;DHT22;11084;52.482;9.108;2022-11-03T10:30:09;14.20;99.90
21844;DHT22;11084;52.482;9.108;2022-11-03T10:32:36;14.20;99.90
21844;DHT22;11084;52.482;9.108;2022-11-03T10:35:32;14.20;99.90
21844;DHT22;11084;52.482;9.108;2022-11-03T10:38:32;14.20;99.90
21844;DHT22;11084;52.482;9.108;2022-11-03T10:41:26;14.20;99.90
21844;DHT22;11084;52.482;9.108;2022-11-03T10:44:18;14.20;99.90
21844;DHT22;11084;52.482;9.108;2022-11-03T10:47:04;14.20;99.90
21844;DHT22;11084;52.482;9.108;2022-11-03T10:49:33;14.20;99.90
21844;DHT22;11084;52.482;9.108;2022-11-03T10:52:24;14.20;99.90
21844;DHT22;11084;52.482;9.108;2022-11-03T10:54:54;14.30;99.90
21844;DHT22;11084;52.482;9.108;2022-11-03T10:57:21;14.30;99.90
21844;DHT22;11084;52.482;9.108;2022-11-03T10:59:50;14.40;99.90
21844;DHT22;11084;52.482;9.108;2022-11-03T11:02:18;14.40;99.90
21844;DHT22;11084;52.482;9.108;2022-11-03T11:04:56;14.40;99.90
21844;DHT22;11084;52.482;9.108;2022-11-03T11:07:39;14.30;99.90
21844;DHT22;11084;52.482;9.108;2022-11-03T11:21:00;14.40;99.90
21844;DHT22;11084;52.482;9.108;2022-11-03T11:23:49;14.40;99.90
21844;DHT22;11084;52.482;9.108;2022-11-03T11:31:37;14.30;99.90
21844;DHT22;11084;52.482;9.108;2022-11-03T11:36:44;14.40;99.90
21844;DHT22;11084;52.482;9.108;2022-11-03T11:39:41;14.40;99.90
21844;DHT22;11084;52.482;9.108;2022-11-03T12:04:07;14.30;99.90
21844;DHT22;11084;52.482;9.108;2022-11-03T12:06:42;14.40;99.90
21844;DHT22;11084;52.482;9.108;2022-11-03T12:11:41;14.30;99.90
21844;DHT22;11084;52.482;9.108;2022-11-03T12:16:57;14.30;99.90
21844;DHT22;11084;52.482;9.108;2022-11-03T12:19:45;14.30;99.90
21844;DHT22;11084;52.482;9.108;2022-11-03T12:25:04;14.20;99.90
21844;DHT22;11084;52.482;9.108;2022-11-03T12:30:01;14.20;99.90
21844;DHT22;11084;52.482;9.108;2022-11-03T12:32:30;14.20;99.90
21844;DHT22;11084;52.482;9.108;2022-11-03T12:34:56;14.10;99.90
21844;DHT22;11084;52.482;9.108;2022-11-03T12:37:22;14.10;99.90
21844;DHT22;11084;52.482;9.108;2022-11-03T12:39:48;14.10;99.90
21844;DHT22;11084;52.482;9.108;2022-11-03T12:42:14;14.00;99.90
21844;DHT22;11084;52.482;9.108;2022-11-03T12:44:40;13.90;99.90
21844;DHT22;11084;52.482;9.108;2022-11-03T12:47:07;13.90;99.90
21844;DHT22;11084;52.482;9.108;2022-11-03T12:49:33;13.90;99.90
21844;DHT22;11084;52.482;9.108;2022-11-03T12:52:00;13.80;99.90
21844;DHT22;11084;52.482;9.108;2022-11-03T12:54:31;13.80;99.90
21844;DHT22;11084;52.482;9.108;2022-11-03T12:56:58;13.80;99.90
21844;DHT22;11084;52.482;9.108;2022-11-03T12:59:24;13.80;99.90
21844;DHT22;11084;52.482;9.108;2022-11-03T13:01:50;13.80;99.90
21844;DHT22;11084;52.482;9.108;2022-11-03T13:04:17;13.90;99.90
21844;DHT22;11084;52.482;9.108;2022-11-03T13:06:43;13.90;99.90
21844;DHT22;11084;52.482;9.108;2022-11-03T13:09:09;13.80;99.90
21844;DHT22;11084;52.482;9.108;2022-11-03T13:11:35;13.90;99.90
21844;DHT22;11084;52.482;9.108;2022-11-03T13:14:19;13.90;99.90
21844;DHT22;11084;52.482;9.108;2022-11-03T13:16:45;13.90;99.90
21844;DHT22;11084;52.482;9.108;2022-11-03T13:19:11;13.80;99.90
21844;DHT22;11084;52.482;9.108;2022-11-03T13:21:37;13.80;99.90
21844;DHT22;11084;52.482;9.108;2022-11-03T13:24:06;13.90;99.90
21844;DHT22;11084;52.482;9.108;2022-11-03T13:26:32;13.90;99.90
21844;DHT22;11084;52.482;9.108;2022-11-03T13:28:57;13.90;99.90
21844;DHT22;11084;52.482;9.108;2022-11-03T13:31:24;13.90;99.90
21844;DHT22;11084;52.482;9.108;2022-11-03T13:33:50;13.90;99.90
21844;DHT22;11084;52.482;9.108;2022-11-03T13:36:16;13.90;99.90
21844;DHT22;11084;52.482;9.108;2022-11-03T13:38:42;13.80;99.90
21844;DHT22;11084;52.482;9.108;2022-11-03T13:41:09;14.10;99.90
21844;DHT22;11084;52.482;9.108;2022-11-03T13:43:35;13.80;99.90
21844;DHT22;11084;52.482;9.108;2022-11-03T13:46:01;13.90;99.90
21844;DHT22;11084;52.482;9.108;2022-11-03T13:48:29;13.90;99.90
21844;DHT22;11084;52.482;9.108;2022-11-03T13:50:55;13.90;99.90
21844;DHT22;11084;52.482;9.108;2022-11-03T13:53:22;13.90;99.90
21844;DHT22;11084;52.482;9.108;2022-11-03T13:55:48;13.90;99.90
21844;DHT22;11084;52.482;9.108;2022-11-03T13:58:14;13.90;99.90
21844;DHT22;11084;52.482;9.108;2022-11-03T14:00:40;13.90;99.90
21844;DHT22;11084;52.482;9.108;2022-11-03T14:03:06;13.90;99.90
21844;DHT22;11084;52.482;9.108;2022-11-03T14:05:33;13.80;99.90
21844;DHT22;11084;52.482;9.108;2022-11-03T14:08:02;13.80;99.90
21844;DHT22;11084;52.482;9.108;2022-11-03T14:10:29;13.80;99.90
21844;DHT22;11084;52.482;9.108;2022-11-03T14:12:55;13.80;99.90
21844;DHT22;11084;52.482;9.108;2022-11-03T14:15:21;13.80;99.90
21844;DHT22;11084;52.482;9.108;2022-11-03T14:17:47;13.80;99.90
21844;DHT22;11084;52.482;9.108;2022-11-03T14:22:39;13.90;99.90
21844;DHT22;11084;52.482;9.108;2022-11-03T14:25:06;13.80;99.90
21844;DHT22;11084;52.482;9.108;2022-11-03T14:27:32;13.80;99.90
21844;DHT22;11084;52.482;9.108;2022-11-03T14:29:58;13.80;99.90
21844;DHT22;11084;52.482;9.108;2022-11-03T14:32:25;13.80;99.90
21844;DHT22;11084;52.482;9.108;2022-11-03T14:34:51;13.80;99.90
21844;DHT22;11084;52.482;9.108;2022-11-03T14:37:17;13.70;99.90
21844;DHT22;11084;52.482;9.108;2022-11-03T14:39:44;13.70;99.90
21844;DHT22;11084;52.482;9.108;2022-11-03T14:42:11;13.70;99.90
21844;DHT22;11084;52.482;9.108;2022-11-03T14:44:43;13.60;99.90
21844;DHT22;11084;52.482;9.108;2022-11-03T14:47:11;13.60;99.90
21844;DHT22;11084;52.482;9.108;2022-11-03T14:49:42;13.60;99.90
21844;DHT22;11084;52.482;9.108;2022-11-03T14:52:09;13.50;99.90
21844;DHT22;11084;52.482;9.108;2022-11-03T14:54:35;13.50;99.90
21844;DHT22;11084;52.482;9.108;2022-11-03T14:57:02;13.50;99.90
21844;DHT22;11084;52.482;9.108;2022-11-03T14:59:29;13.40;99.90
21844;DHT22;11084;52.482;9.108;2022-11-03T15:01:55;13.40;99.90
21844;DHT22;11084;52.482;9.108;2022-11-03T15:04:22;13.40;99.90
21844;DHT22;11084;52.482;9.108;2022-11-03T15:06:48;13.30;99.90
21844;DHT22;11084;52.482;9.108;2022-11-03T15:09:15;13.30;99.90
21844;DHT22;11084;52.482;9.108;2022-11-03T15:11:42;13.30;99.90
21844;DHT22;11084;52.482;9.108;2022-11-03T15:14:12;13.30;99.90
21844;DHT22;11084;52.482;9.108;2022-11-03T15:16:38;13.20;99.90
21844;DHT22;11084;52.482;9.108;2022-11-03T15:19:05;13.20;99.90
21844;DHT22;11084;52.482;9.108;2022-11-03T15:21:32;13.20;99.90
21844;DHT22;11084;52.482;9.108;2022-11-03T15:23:58;13.10;99.90
21844;DHT22;11084;52.482;9.108;2022-11-03T15:26:25;13.10;99.90
21844;DHT22;11084;52.482;9.108;2022-11-03T15:28:51;13.00;99.90
21844;DHT22;11084;52.482;9.108;2022-11-03T15:31:18;13.00;99.90
21844;DHT22;11084;52.482;9.108;2022-11-03T15:33:44;13.00;99.90
21844;DHT22;11084;52.482;9.108;2022-11-03T15:36:10;12.90;99.90
21844;DHT22;11084;52.482;9.108;2022-11-03T15:38:36;12.90;99.90
21844;DHT22;11084;52.482;9.108;2022-11-03T15:41:02;12.90;99.90
21844;DHT22;11084;52.482;9.108;2022-11-03T15:43:42;12.90;99.90
21844;DHT22;11084;52.482;9.108;2022-11-03T15:46:13;12.90;99.90
21844;DHT22;11084;52.482;9.108;2022-11-03T15:48:40;12.80;99.90
21844;DHT22;11084;52.482;9.108;2022-11-03T15:51:07;12.80;99.90
21844;DHT22;11084;52.482;9.108;2022-11-03T15:53:33;12.80;99.90
21844;DHT22;11084;52.482;9.108;2022-11-03T15:56:01;12.80;99.90
21844;DHT22;11084;52.482;9.108;2022-11-03T15:58:27;12.80;99.90
21844;DHT22;11084;52.482;9.108;2022-11-03T16:00:56;12.70;99.90
21844;DHT22;11084;52.482;9.108;2022-11-03T16:03:22;12.70;99.90
21844;DHT22;11084;52.482;9.108;2022-11-03T16:05:48;12.70;99.90
21844;DHT22;11084;52.482;9.108;2022-11-03T16:08:17;12.70;99.90
21844;DHT22;11084;52.482;9.108;2022-11-03T16:10:53;12.60;99.90
21844;DHT22;11084;52.482;9.108;2022-11-03T16:13:19;12.70;99.90
21844;DHT22;11084;52.482;9.108;2022-11-03T16:15:46;12.60;99.90
21844;DHT22;11084;52.482;9.108;2022-11-03T16:18:12;12.60;99.90
21844;DHT22;11084;52.482;9.108;2022-11-03T16:20:38;12.60;99.90
21844;DHT22;11084;52.482;9.108;2022-11-03T16:23:04;12.60;99.90
21844;DHT22;11084;52.482;9.108;2022-11-03T16:25:33;12.60;99.90
21844;DHT22;11084;52.482;9.108;2022-11-03T16:28:00;12.50;99.90
21844;DHT22;11084;52.482;9.108;2022-11-03T16:30:27;12.50;99.90
21844;DHT22;11084;52.482;9.108;2022-11-03T16:32:54;12.50;99.90
21844;DHT22;11084;52.482;9.108;2022-11-03T16:35:21;12.50;99.90
21844;DHT22;11084;52.482;9.108;2022-11-03T16:37:47;12.40;99.90
21844;DHT22;11084;52.482;9.108;2022-11-03T16:40:13;12.40;99.90
21844;DHT22;11084;52.482;9.108;2022-11-03T16:42:39;12.40;99.90
21844;DHT22;11084;52.482;9.108;2022-11-03T16:45:14;12.40;99.90
21844;DHT22;11084;52.482;9.108;2022-11-03T16:47:48;12.40;99.90
21844;DHT22;11084;52.482;9.108;2022-11-03T16:50:16;12.40;99.90
21844;DHT22;11084;52.482;9.108;2022-11-03T16:52:43;12.40;99.90
21844;DHT22;11084;52.482;9.108;2022-11-03T16:55:10;12.40;99.90
21844;DHT22;11084;52.482;9.108;2022-11-03T16:57:40;12.40;99.90
21844;DHT22;11084;52.482;9.108;2022-11-03T17:00:10;12.40;99.90
21844;DHT22;11084;52.482;9.108;2022-11-03T17:02:38;12.40;99.90
21844;DHT22;11084;52.482;9.108;2022-11-03T17:05:15;12.40;99.90
21844;DHT22;11084;52.482;9.108;2022-11-03T17:07:48;12.40;99.90
21844;DHT22;11084;52.482;9.108;2022-11-03T17:10:14;12.30;99.90
21844;DHT22;11084;52.482;9.108;2022-11-03T17:12:40;12.40;99.90
21844;DHT22;11084;52.482;9.108;2022-11-03T17:15:10;12.30;99.90
21844;DHT22;11084;52.482;9.108;2022-11-03T17:17:38;12.30;99.90
21844;DHT22;11084;52.482;9.108;2022-11-03T17:20:05;12.30;99.90
21844;DHT22;11084;52.482;9.108;2022-11-03T17:22:32;12.30;99.90
21844;DHT22;11084;52.482;9.108;2022-11-03T17:30:20;12.20;99.90
21844;DHT22;11084;52.482;9.108;2022-11-03T17:32:50;12.20;99.90
21844;DHT22;11084;52.482;9.108;2022-11-03T17:35:18;12.20;99.90
21844;DHT22;11084;52.482;9.108;2022-11-03T17:37:51;12.20;99.90
21844;DHT22;11084;52.482;9.108;2022-11-03T17:40:23;12.20;99.90
21844;DHT22;11084;52.482;9.108;2022-11-03T17:42:50;12.20;99.90
21844;DHT22;11084;52.482;9.108;2022-11-03T17:45:19;12.20;99.90